Home > Products > Valid Products > MTR

000
SAUS42 KCHS 250502
MTRNBC
METAR KNBC 250456Z AUTO 00000KT 10SM CLR 13/11 A3001 RMK AO2 SLP162
T01330106 402390089 $





000
SAUS42 KCHS 250401
MTRNBC
METAR KNBC 250356Z AUTO 23003KT 10SM CLR 13/11 A3001 RMK AO2 SLP161
T01330106 $





000
SAUS42 KCHS 250401
MTRNBC
METAR KNBC 250356Z AUTO 23003KT 10SM CLR 13/11 A3001 RMK AO2 SLP161
T01330106 $





000
SAUS42 KCHS 250301
MTRNBC
METAR KNBC 250256Z AUTO 00000KT 10SM CLR 14/11 A3001 RMK AO2 SLP162
T01440111 53008 $





000
SAUS42 KCHS 250201
MTRNBC
METAR KNBC 250156Z AUTO 25003KT 10SM CLR 14/11 A3000 RMK AO2 SLP160
T01390106 $





000
SAUS42 KCHS 250101
MTRNBC
METAR KNBC 250056Z AUTO 00000KT 10SM CLR 14/11 A2999 RMK AO2 SLP157
T01440106 $





000
SAUS42 KCHS 250001
MTRNBC
METAR KNBC 242356Z AUTO 00000KT 10SM CLR 16/11 A2999 RMK AO2 SLP155
T01560106 10239 20150 52005 $





000
SAUS42 KCHS 242301
MTRNBC
METAR KNBC 242256Z AUTO 00000KT 10SM CLR 17/12 A2999 RMK AO2 SLP154
T01670117 $





000
SAUS42 KCHS 242201
MTRNBC
METAR KNBC 242156Z 29003KT 10SM CLR 22/07 A2997 RMK AO2 SLP150
T02220072 $





000
SAUS42 KCHS 242101
MTRNBC
METAR KNBC 242056Z 00000KT 10SM CLR 23/07 A2997 RMK AO2 SLP149
T02280067 56016 $





000
SAUS42 KCHS 242001
MTRNBC
METAR KNBC 241956Z 00000KT 10SM CLR 23/06 A2998 RMK AO2 SLP153
T02330061 $





000
SAUS42 KCHS 241901
MTRNBC
METAR KNBC 241856Z 00000KT 10SM CLR 23/06 A3000 RMK AO2 SLP159
T02280061 $





000
SAUS42 KCHS 241801
MTRNBC
METAR KNBC 241756Z 00000KT 10SM FEW150 FEW250 22/07 A3002 RMK AO2
SLP165 T02220072 10222 20094 58019 $





000
SAUS42 KCHS 241701
MTRNBC
METAR KNBC 241656Z 16003KT 10SM FEW150 SCT250 21/08 A3005 RMK AO2
SLP177 T02110083 $





000
SAUS42 KCHS 241601
MTRNBC
METAR KNBC 241556Z 00000KT 10SM FEW150 SCT250 19/10 A3008 RMK AO2
SLP185 T01890100 $





000
SAUS42 KCHS 241501
MTRNBC
METAR KNBC 241456Z 03005KT 10SM SCT120 BKN250 16/09 A3007 RMK AO2
SLP184 T01610094 50009 $





000
SAUS42 KCHS 241401
MTRNBC
METAR KNBC 241356Z 04006KT 10SM FEW030 SCT120 BKN230 16/09 A3008 RMK
AO2 SLP184 FIRST T01560094 $





000
SAUS42 KCHS 241334
MTRNBC
SPECI KNBC 241329Z 02004KT 10SM FEW030 SCT120 BKN230 14/09 A3008 RMK
AO2 FIRST T01440094 $





000
SAUS42 KCHS 241301
MTRNBC
METAR KNBC 241256Z AUTO 02005KT 10SM CLR 14/10 A3007 RMK AO2 SLP181
T01390100 $





000
SAUS42 KCHS 241201
MTRNBC
METAR KNBC 241156Z AUTO 00000KT 10SM CLR 09/08 A3005 RMK AO2 SLP175
T00940078 10111 20089 51014 $





000
SAUS42 KCHS 241101
MTRNBC
METAR KNBC 241056Z AUTO 00000KT 10SM CLR 09/07 A3004 RMK AO2 SLP174
T00890072 $





000
SAUS42 KCHS 241001
MTRNBC
METAR KNBC 240956Z AUTO 00000KT 10SM CLR 09/08 A3002 RMK AO2 SLP165
T00940078 $





000
SAUS42 KCHS 241001
MTRNBC
METAR KNBC 240956Z AUTO 00000KT 10SM CLR 09/08 A3002 RMK AO2 SLP165
T00940078 $





000
SAUS42 KCHS 240901
MTRNBC
METAR KNBC 240856Z AUTO 00000KT 10SM CLR 10/08 A3001 RMK AO2 SLP161
T01000083 58004 $





000
SAUS42 KCHS 240801
MTRNBC
METAR KNBC 240756Z AUTO 00000KT 10SM CLR 10/08 A3001 RMK AO2 SLP163
T01000083 $





000
SAUS42 KCHS 240701
MTRNBC
METAR KNBC 240656Z AUTO 27003KT 10SM CLR 10/08 A3002 RMK AO2 SLP165
T01000083 $





000
SAUS42 KCHS 240601
MTRNBC
METAR KNBC 240556Z AUTO 00000KT 10SM CLR 10/08 A3002 RMK AO2 SLP165
LAST T01000083 10139 20094 56013 $





000
SAUS42 KCHS 240501
MTRNBC
METAR KNBC 240456Z 25003KT 10SM CLR 11/09 A3003 RMK AO2 SLP168
T01060089 402170083 $





000
SAUS42 KCHS 240501
MTRNBC
METAR KNBC 240456Z 25003KT 10SM CLR 11/09 A3003 RMK AO2 SLP168
T01060089 402170083 $





000
SAUS42 KCHS 240401
MTRNBC
METAR KNBC 240356Z 24005KT 10SM CLR 10/08 A3004 RMK AO2 SLP172
T01000083 $





000
SAUS42 KCHS 240401
MTRNBC
METAR KNBC 240356Z 24005KT 10SM CLR 10/08 A3004 RMK AO2 SLP172
T01000083 $





000
SAUS42 KCHS 240301
MTRNBC
METAR KNBC 240256Z 24003KT 10SM CLR 11/09 A3006 RMK AO2 SLP178
T01110089 53011 $





000
SAUS42 KCHS 240301
MTRNBC
METAR KNBC 240256Z 24003KT 10SM CLR 11/09 A3006 RMK AO2 SLP178
T01110089 53011 $





000
SAUS42 KCHS 240201
MTRNBC
METAR KNBC 240156Z 24005KT 10SM CLR 12/09 A3005 RMK AO2 SLP177
T01170094 $





000
SAUS42 KCHS 240201
MTRNBC
METAR KNBC 240156Z 24005KT 10SM CLR 12/09 A3005 RMK AO2 SLP177
T01170094 $





000
SAUS42 KCHS 240101
MTRNBC
METAR KNBC 240056Z 00000KT 10SM CLR 13/10 A3003 RMK AO2 SLP168
T01280100 $





000
SAUS42 KCHS 240001
MTRNBC
METAR KNBC 232356Z 23004KT 10SM CLR 14/10 A3002 RMK AO2 SLP167
T01390100 10217 20133 53009 $





000
SAUS42 KCHS 232301
MTRNBC
METAR KNBC 232256Z 24003KT 10SM CLR 15/10 A3001 RMK AO2 SLP162
T01500100 $





000
SAUS42 KCHS 232201
MTRNBC
METAR KNBC 232156Z 29004KT 10SM FEW250 21/08 A3000 RMK AO2 SLP160
T02060078 $





000
SAUS42 KCHS 232101
MTRNBC
METAR KNBC 232056Z 34008KT 10SM CLR 22/07 A3000 RMK AO2 SLP157
T02170072 56014 $





000
SAUS42 KCHS 232001
MTRNBC
METAR KNBC 231956Z 30006KT 10SM CLR 21/07 A3000 RMK AO2 SLP160
T02110072 $





000
SAUS42 KCHS 231901
MTRNBC
METAR KNBC 231856Z VRB05KT 10SM CLR 21/07 A3001 RMK AO2 SLP164
T02060072 $





000
SAUS42 KCHS 231901
MTRNBC
METAR KNBC 231856Z VRB05KT 10SM CLR 21/07 A3001 RMK AO2 SLP164
T02060072 $





000
SAUS42 KCHS 231757
MTRNBC
METAR KNBC 231756Z 27007KT 10SM CLR 19/07 A3004 RMK AO2 SLP171 WIND
DATA ESTIMATED T01940067 10200 20094 58026 $





000
SAUS42 KCHS 231757
MTRNBC
METAR KNBC 231756Z 27007KT 10SM CLR 19/07 A3004 RMK AO2 SLP171 WIND
DATA ESTIMATED T01940067 10200 20094 58026 $





000
SAUS42 KCHS 231657
MTRNBC
METAR KNBC 231656Z 10SM CLR 18/07 A3008 RMK AO2 SLP185 T01830067 $





000
SAUS42 KCHS 231657
MTRNBC
METAR KNBC 231656Z 10SM CLR 18/07 A3008 RMK AO2 SLP185 T01830067 $





000
SAUS42 KCHS 231557
MTRNBC
METAR KNBC 231556Z VRB05KT 10SM CLR 18/07 A3009 RMK AO2 SLP191
T01780072 $





000
SAUS42 KCHS 231457
MTRNBC
METAR KNBC 231456Z 02008KT 10SM CLR 17/07 A3011 RMK AO2 SLP197
T01670072 50007 $





000
SAUS42 KCHS 231457
MTRNBC
METAR KNBC 231456Z 02008KT 10SM CLR 17/07 A3011 RMK AO2 SLP197
T01670072 50007 $





000
SAUS42 KCHS 231357
MTRNBC
METAR KNBC 231356Z 36007KT 10SM CLR 14/07 A3011 RMK AO2 SLP198
T01440072 $





000
SAUS42 KCHS 231332
MTRNBC
SPECI KNBC 231331Z 35006KT 10SM CLR 13/07 A3011 RMK AO2 FIRST
T01330072 $





000
SAUS42 KCHS 231257
MTRNBC
METAR KNBC 231256Z AUTO 36007KT 10SM CLR 12/07 A3010 RMK AO2 SLP194
T01170067 $





000
SAUS42 KCHS 231157
MTRNBC
METAR KNBC 231156Z AUTO 34004KT 10SM CLR 09/07 A3009 RMK AO2 SLP190
T00940067 10122 20083 51009 $





000
SAUS42 KCHS 231057
MTRNBC
METAR KNBC 231056Z AUTO 35005KT 10SM CLR 09/07 A3009 RMK AO2 SLP190
T00940067 $





000
SAUS42 KCHS 230957
MTRNBC
METAR KNBC 230956Z AUTO 00000KT 10SM CLR 09/07 A3007 RMK AO2 SLP184
T00890067 $





000
SAUS42 KCHS 230957
MTRNBC
METAR KNBC 230956Z AUTO 00000KT 10SM CLR 09/07 A3007 RMK AO2 SLP184
T00890067 $





000
SAUS42 KCHS 230857
MTRNBC
METAR KNBC 230856Z AUTO 31003KT 10SM CLR 08/07 A3006 RMK AO2 SLP181
T00830067 55002 $





000
SAUS42 KCHS 230757
MTRNBC
METAR KNBC 230756Z AUTO 34004KT 10SM CLR 10/08 A3005 RMK AO2 SLP177
T01000078 $





000
SAUS42 KCHS 230657
MTRNBC
METAR KNBC 230656Z AUTO 36006KT 10SM CLR 11/07 A3007 RMK AO2 SLP183
T01110072 $





000
SAUS42 KCHS 230557
MTRNBC
METAR KNBC 230556Z AUTO 01007KT 10SM CLR 12/07 A3007 RMK AO2 SLP183
T01220072 10150 20106 55002 $





000
SAUS42 KCHS 230457
MTRNBC
METAR KNBC 230456Z 36009KT 10SM CLR 13/08 A3006 RMK AO2 SLP180
T01330083 402170106 $





000
SAUS42 KCHS 230457
MTRNBC
METAR KNBC 230456Z 36009KT 10SM CLR 13/08 A3006 RMK AO2 SLP180
T01330083 402170106 $





000
SAUS42 KCHS 230357
MTRNBC
METAR KNBC 230356Z 00000KT 10SM CLR 11/08 A3007 RMK AO2 SLP183
T01060078 $





000
SAUS42 KCHS 230357
MTRNBC
METAR KNBC 230356Z 00000KT 10SM CLR 11/08 A3007 RMK AO2 SLP183
T01060078 $





000
SAUS42 KCHS 230257
MTRNBC
METAR KNBC 230256Z 27003KT 10SM CLR 11/08 A3008 RMK AO2 SLP185
T01110078 51009 $





000
SAUS42 KCHS 230157
MTRNBC
METAR KNBC 230156Z 33003KT 10SM CLR 12/09 A3007 RMK AO2 SLP182
T01220089 $





000
SAUS42 KCHS 230157
MTRNBC
METAR KNBC 230156Z 33003KT 10SM CLR 12/09 A3007 RMK AO2 SLP182
T01220089 $





000
SAUS42 KCHS 230057
MTRNBC
METAR KNBC 230056Z 00000KT 10SM CLR 13/10 A3006 RMK AO2 SLP179
T01330100 $





000
SAUS42 KCHS 230057
MTRNBC
METAR KNBC 230056Z 00000KT 10SM CLR 13/10 A3006 RMK AO2 SLP179
T01330100 $





000
SAUS42 KCHS 222357
MTRNBC
METAR KNBC 222356Z 00000KT 10SM CLR 13/09 A3005 RMK AO2 SLP175
T01330094 10217 20133 53015 $





000
SAUS42 KCHS 222357
MTRNBC
METAR KNBC 222356Z 00000KT 10SM CLR 13/09 A3005 RMK AO2 SLP175
T01330094 10217 20133 53015 $





000
SAUS42 KCHS 222257
MTRNBC
METAR KNBC 222256Z 00000KT 10SM CLR 17/08 A3003 RMK AO2 SLP170
T01670078 $





000
SAUS42 KCHS 222257
MTRNBC
METAR KNBC 222256Z 00000KT 10SM CLR 17/08 A3003 RMK AO2 SLP170
T01670078 $





000
SAUS42 KCHS 222157
MTRNBC
METAR KNBC 222156Z 33005KT 10SM CLR 21/06 A3002 RMK AO2 SLP164
T02060061 $





000
SAUS42 KCHS 222057
MTRNBC
METAR KNBC 222056Z 01010KT 10SM CLR 21/06 A3000 RMK AO2 SLP160
T02110061 56006 $





000
SAUS42 KCHS 221957
MTRNBC
METAR KNBC 221956Z 30009KT 10SM CLR 21/06 A3001 RMK AO2 SLP161
T02110056 $





000
SAUS42 KCHS 221857
MTRNBC
METAR KNBC 221856Z 32010KT 10SM CLR 21/06 A3001 RMK AO2 SLP161
T02110061 $





000
SAUS42 KCHS 221757
MTRNBC
METAR KNBC 221756Z 31009KT 10SM CLR 20/06 A3002 RMK AO2 SLP167
T02000061 10206 20122 58013 $





000
SAUS42 KCHS 221757
MTRNBC
METAR KNBC 221756Z 31009KT 10SM CLR 20/06 A3002 RMK AO2 SLP167
T02000061 10206 20122 58013 $





000
SAUS42 KCHS 221657
MTRNBC
METAR KNBC 221656Z 03007KT 10SM CLR 19/07 A3005 RMK AO2 SLP176
T01940072 $





000
SAUS42 KCHS 221657
MTRNBC
METAR KNBC 221656Z 03007KT 10SM CLR 19/07 A3005 RMK AO2 SLP176
T01940072 $





000
SAUS42 KCHS 221557
MTRNBC
METAR KNBC 221556Z 02010KT 10SM CLR 18/07 A3006 RMK AO2 SLP181
T01830067 $





000
SAUS42 KCHS 221557
MTRNBC
METAR KNBC 221556Z 02010KT 10SM CLR 18/07 A3006 RMK AO2 SLP181
T01830067 $





000
SAUS42 KCHS 221457
MTRNBC
METAR KNBC 221456Z 02012KT 10SM CLR 17/06 A3006 RMK AO2 SLP180
T01720061 50011 $





000
SAUS42 KCHS 221357
MTRNBC
METAR KNBC 221356Z 02013G20KT 10SM CLR 16/06 A3006 RMK AO2 SLP181
T01560061 $





000
SAUS42 KCHS 221328
MTRNBC
SPECI KNBC 221327Z 02015G20KT 10SM CLR 15/06 A3006 RMK AO2 FIRST
T01500061 $





000
SAUS42 KCHS 221257
MTRNBC
METAR KNBC 221256Z AUTO 36011KT 10SM CLR 14/07 A3005 RMK AO2 SLP177
T01440067 $





000
SAUS42 KCHS 221157
MTRNBC
METAR KNBC 221156Z AUTO 36008KT 10SM CLR 12/07 A3003 RMK AO2 SLP169
7//// T01220072 10172 20122 51022 $





000
SAUS42 KCHS 221057
MTRNBC
METAR KNBC 221056Z AUTO 36007KT 10SM CLR 12/08 A3001 RMK AO2 SLP163
T01220078 $





000
SAUS42 KCHS 221057
MTRNBC
METAR KNBC 221056Z AUTO 36007KT 10SM CLR 12/08 A3001 RMK AO2 SLP163
T01220078 $





000
SAUS42 KCHS 220957
MTRNBC
METAR KNBC 220956Z AUTO 34007KT 10SM CLR 13/09 A2999 RMK AO2 SLP154
T01280089 $





000
SAUS42 KCHS 220957
MTRNBC
METAR KNBC 220956Z AUTO 34007KT 10SM CLR 13/09 A2999 RMK AO2 SLP154
T01280089 $





000
SAUS42 KCHS 220857
MTRNBC
METAR KNBC 220856Z AUTO 34006KT 10SM CLR 14/10 A2996 RMK AO2 SLP146
T01390100 53007 $





000
SAUS42 KCHS 220757
MTRNBC
METAR KNBC 220756Z AUTO 36004KT 10SM CLR 14/10 A2995 RMK AO2 SLP141
T01390100 $





000
SAUS42 KCHS 220657
MTRNBC
METAR KNBC 220656Z AUTO 33006KT 10SM CLR 16/11 A2995 RMK AO2 SLP142
T01610106 $





000
SAUS42 KCHS 220557
MTRNBC
METAR KNBC 220556Z AUTO 32007KT 10SM CLR 17/11 A2994 RMK AO2 SLP139
LAST T01720111 10194 20156 53000 $





000
SAUS42 KCHS 220557
MTRNBC
METAR KNBC 220556Z AUTO 32007KT 10SM CLR 17/11 A2994 RMK AO2 SLP139
LAST T01720111 10194 20156 53000 $





    US Dept of Commerce
    National Oceanic and Atmospheric Administration
    National Weather Service
    1325 East West Highway
    Silver Spring, MD 20910
    Page Author: NWS Internet Services Team
Disclaimer
Information Quality
Credits
Glossary
Privacy Policy
Freedom of Information Act (FOIA)
About Us
Career Opportunities